sensor_id;sensor_type;location;lat;lon;timestamp;P1;durP1;ratioP1;P2;durP2;ratioP2
33579;SDS011;19909;43.644;-79.438;2024-03-22T00:02:24;1.77;;;0.90;;
33579;SDS011;19909;43.644;-79.438;2024-03-22T00:04:51;1.00;;;0.80;;
33579;SDS011;19909;43.644;-79.438;2024-03-22T00:07:18;1.05;;;0.60;;
33579;SDS011;19909;43.644;-79.438;2024-03-22T00:09:45;0.68;;;0.40;;
33579;SDS011;19909;43.644;-79.438;2024-03-22T00:12:11;1.17;;;0.70;;
33579;SDS011;19909;43.644;-79.438;2024-03-22T00:14:39;1.00;;;0.60;;
33579;SDS011;19909;43.644;-79.438;2024-03-22T00:17:06;0.47;;;0.30;;
33579;SDS011;19909;43.644;-79.438;2024-03-22T00:19:34;0.52;;;0.30;;
33579;SDS011;19909;43.644;-79.438;2024-03-22T00:22:02;1.02;;;0.30;;
33579;SDS011;19909;43.644;-79.438;2024-03-22T00:24:29;1.02;;;0.60;;
33579;SDS011;19909;43.644;-79.438;2024-03-22T00:26:57;0.30;;;0.30;;
33579;SDS011;19909;43.644;-79.438;2024-03-22T00:29:24;1.02;;;0.30;;
33579;SDS011;19909;43.644;-79.438;2024-03-22T00:31:51;0.70;;;0.40;;
33579;SDS011;19909;43.644;-79.438;2024-03-22T00:34:17;1.27;;;0.40;;
33579;SDS011;19909;43.644;-79.438;2024-03-22T00:36:44;0.68;;;0.40;;
33579;SDS011;19909;43.644;-79.438;2024-03-22T00:39:12;0.52;;;0.30;;
33579;SDS011;19909;43.644;-79.438;2024-03-22T00:41:39;1.20;;;0.30;;
33579;SDS011;19909;43.644;-79.438;2024-03-22T00:44:10;0.40;;;0.22;;
33579;SDS011;19909;43.644;-79.438;2024-03-22T00:46:36;0.30;;;0.20;;
33579;SDS011;19909;43.644;-79.438;2024-03-22T00:49:02;0.60;;;0.30;;
33579;SDS011;19909;43.644;-79.438;2024-03-22T00:51:28;0.40;;;0.28;;
33579;SDS011;19909;43.644;-79.438;2024-03-22T00:53:55;1.17;;;0.32;;
33579;SDS011;19909;43.644;-79.438;2024-03-22T00:56:23;0.95;;;0.40;;
33579;SDS011;19909;43.644;-79.438;2024-03-22T00:58:50;0.85;;;0.30;;
33579;SDS011;19909;43.644;-79.438;2024-03-22T01:01:20;0.70;;;0.30;;
33579;SDS011;19909;43.644;-79.438;2024-03-22T01:03:46;0.40;;;0.20;;
33579;SDS011;19909;43.644;-79.438;2024-03-22T01:06:13;1.17;;;0.32;;
33579;SDS011;19909;43.644;-79.438;2024-03-22T01:08:39;1.65;;;0.40;;
33579;SDS011;19909;43.644;-79.438;2024-03-22T01:11:06;0.28;;;0.13;;
33579;SDS011;19909;43.644;-79.438;2024-03-22T01:13:33;0.57;;;0.35;;
33579;SDS011;19909;43.644;-79.438;2024-03-22T01:15:59;0.82;;;0.20;;
33579;SDS011;19909;43.644;-79.438;2024-03-22T01:18:26;0.60;;;0.30;;
33579;SDS011;19909;43.644;-79.438;2024-03-22T01:20:52;0.30;;;0.20;;
33579;SDS011;19909;43.644;-79.438;2024-03-22T01:23:20;0.40;;;0.10;;
33579;SDS011;19909;43.644;-79.438;2024-03-22T01:25:46;0.77;;;0.20;;
33579;SDS011;19909;43.644;-79.438;2024-03-22T01:28:12;0.45;;;0.17;;
33579;SDS011;19909;43.644;-79.438;2024-03-22T01:30:40;0.35;;;0.10;;
33579;SDS011;19909;43.644;-79.438;2024-03-22T01:33:08;1.70;;;0.17;;
33579;SDS011;19909;43.644;-79.438;2024-03-22T01:35:35;0.65;;;0.20;;
33579;SDS011;19909;43.644;-79.438;2024-03-22T01:38:01;1.45;;;0.20;;
33579;SDS011;19909;43.644;-79.438;2024-03-22T01:40:29;1.15;;;0.30;;
33579;SDS011;19909;43.644;-79.438;2024-03-22T01:42:57;1.42;;;0.28;;
33579;SDS011;19909;43.644;-79.438;2024-03-22T01:45:25;0.20;;;0.13;;
33579;SDS011;19909;43.644;-79.438;2024-03-22T01:47:57;0.43;;;0.20;;
33579;SDS011;19909;43.644;-79.438;2024-03-22T01:50:29;0.52;;;0.22;;
33579;SDS011;19909;43.644;-79.438;2024-03-22T01:52:58;1.45;;;0.28;;
33579;SDS011;19909;43.644;-79.438;2024-03-22T01:55:25;0.32;;;0.20;;
33579;SDS011;19909;43.644;-79.438;2024-03-22T01:57:52;0.47;;;0.10;;
33579;SDS011;19909;43.644;-79.438;2024-03-22T02:00:19;0.20;;;0.10;;
33579;SDS011;19909;43.644;-79.438;2024-03-22T02:02:47;2.72;;;0.30;;
33579;SDS011;19909;43.644;-79.438;2024-03-22T02:05:14;3.10;;;0.20;;
33579;SDS011;19909;43.644;-79.438;2024-03-22T02:07:44;0.65;;;0.32;;
33579;SDS011;19909;43.644;-79.438;2024-03-22T02:10:11;0.28;;;0.20;;
33579;SDS011;19909;43.644;-79.438;2024-03-22T02:12:38;1.45;;;0.20;;
33579;SDS011;19909;43.644;-79.438;2024-03-22T02:15:05;0.90;;;0.20;;
33579;SDS011;19909;43.644;-79.438;2024-03-22T02:17:34;0.77;;;0.30;;
33579;SDS011;19909;43.644;-79.438;2024-03-22T02:20:01;0.45;;;0.20;;
33579;SDS011;19909;43.644;-79.438;2024-03-22T02:22:29;1.08;;;0.20;;
33579;SDS011;19909;43.644;-79.438;2024-03-22T02:24:56;0.65;;;0.20;;
33579;SDS011;19909;43.644;-79.438;2024-03-22T02:27:24;0.35;;;0.10;;
33579;SDS011;19909;43.644;-79.438;2024-03-22T02:29:51;0.30;;;0.10;;
33579;SDS011;19909;43.644;-79.438;2024-03-22T02:32:18;0.70;;;0.50;;
33579;SDS011;19909;43.644;-79.438;2024-03-22T02:34:45;0.57;;;0.20;;
33579;SDS011;19909;43.644;-79.438;2024-03-22T02:37:12;0.20;;;0.03;;
33579;SDS011;19909;43.644;-79.438;2024-03-22T02:39:38;0.10;;;0.10;;
33579;SDS011;19909;43.644;-79.438;2024-03-22T02:42:04;0.88;;;0.20;;
33579;SDS011;19909;43.644;-79.438;2024-03-22T02:44:31;0.77;;;0.20;;
33579;SDS011;19909;43.644;-79.438;2024-03-22T02:46:57;0.43;;;0.10;;
33579;SDS011;19909;43.644;-79.438;2024-03-22T02:49:24;0.52;;;0.20;;
33579;SDS011;19909;43.644;-79.438;2024-03-22T02:51:51;0.32;;;0.20;;
33579;SDS011;19909;43.644;-79.438;2024-03-22T02:54:17;0.40;;;0.20;;
33579;SDS011;19909;43.644;-79.438;2024-03-22T02:56:43;0.55;;;0.20;;
33579;SDS011;19909;43.644;-79.438;2024-03-22T02:59:09;0.20;;;0.20;;
33579;SDS011;19909;43.644;-79.438;2024-03-22T03:04:16;0.57;;;0.10;;
33579;SDS011;19909;43.644;-79.438;2024-03-22T03:06:43;0.60;;;0.20;;
33579;SDS011;19909;43.644;-79.438;2024-03-22T03:09:11;1.05;;;0.20;;
33579;SDS011;19909;43.644;-79.438;2024-03-22T03:11:40;0.28;;;0.25;;
33579;SDS011;19909;43.644;-79.438;2024-03-22T03:14:07;0.35;;;0.20;;
33579;SDS011;19909;43.644;-79.438;2024-03-22T03:16:34;0.80;;;0.20;;
33579;SDS011;19909;43.644;-79.438;2024-03-22T03:19:01;0.30;;;0.15;;
33579;SDS011;19909;43.644;-79.438;2024-03-22T03:21:27;0.22;;;0.22;;
33579;SDS011;19909;43.644;-79.438;2024-03-22T03:23:53;0.30;;;0.20;;
33579;SDS011;19909;43.644;-79.438;2024-03-22T03:26:19;0.57;;;0.20;;
33579;SDS011;19909;43.644;-79.438;2024-03-22T03:28:46;0.32;;;0.20;;
33579;SDS011;19909;43.644;-79.438;2024-03-22T03:31:12;0.50;;;0.20;;
33579;SDS011;19909;43.644;-79.438;2024-03-22T03:33:38;1.55;;;0.20;;
33579;SDS011;19909;43.644;-79.438;2024-03-22T03:36:06;0.40;;;0.20;;
33579;SDS011;19909;43.644;-79.438;2024-03-22T03:38:32;0.80;;;0.30;;
33579;SDS011;19909;43.644;-79.438;2024-03-22T03:40:59;0.40;;;0.20;;
33579;SDS011;19909;43.644;-79.438;2024-03-22T03:43:25;1.08;;;0.10;;
33579;SDS011;19909;43.644;-79.438;2024-03-22T03:45:51;0.20;;;0.10;;
33579;SDS011;19909;43.644;-79.438;2024-03-22T03:48:19;0.22;;;0.10;;
33579;SDS011;19909;43.644;-79.438;2024-03-22T03:50:53;0.60;;;0.20;;
33579;SDS011;19909;43.644;-79.438;2024-03-22T03:53:21;1.60;;;0.40;;
33579;SDS011;19909;43.644;-79.438;2024-03-22T03:55:47;0.43;;;0.30;;
33579;SDS011;19909;43.644;-79.438;2024-03-22T03:58:15;0.95;;;0.52;;
33579;SDS011;19909;43.644;-79.438;2024-03-22T04:00:43;1.75;;;0.45;;
33579;SDS011;19909;43.644;-79.438;2024-03-22T04:03:10;0.63;;;0.50;;
33579;SDS011;19909;43.644;-79.438;2024-03-22T04:05:36;0.75;;;0.38;;
33579;SDS011;19909;43.644;-79.438;2024-03-22T04:08:02;0.95;;;0.40;;
33579;SDS011;19909;43.644;-79.438;2024-03-22T04:10:29;0.63;;;0.30;;
33579;SDS011;19909;43.644;-79.438;2024-03-22T04:12:55;1.13;;;0.28;;
33579;SDS011;19909;43.644;-79.438;2024-03-22T04:15:21;0.88;;;0.40;;
33579;SDS011;19909;43.644;-79.438;2024-03-22T04:17:48;0.20;;;0.20;;
33579;SDS011;19909;43.644;-79.438;2024-03-22T04:20:14;0.35;;;0.15;;
33579;SDS011;19909;43.644;-79.438;2024-03-22T04:22:41;1.40;;;0.20;;
33579;SDS011;19909;43.644;-79.438;2024-03-22T04:25:07;1.33;;;0.57;;
33579;SDS011;19909;43.644;-79.438;2024-03-22T04:27:37;0.90;;;0.20;;
33579;SDS011;19909;43.644;-79.438;2024-03-22T04:30:05;0.50;;;0.32;;
33579;SDS011;19909;43.644;-79.438;2024-03-22T04:32:31;1.15;;;0.40;;
33579;SDS011;19909;43.644;-79.438;2024-03-22T04:34:57;1.42;;;0.40;;
33579;SDS011;19909;43.644;-79.438;2024-03-22T04:37:23;0.70;;;0.40;;
33579;SDS011;19909;43.644;-79.438;2024-03-22T04:39:49;0.85;;;0.52;;
33579;SDS011;19909;43.644;-79.438;2024-03-22T04:42:16;0.55;;;0.35;;
33579;SDS011;19909;43.644;-79.438;2024-03-22T04:44:42;0.70;;;0.35;;
33579;SDS011;19909;43.644;-79.438;2024-03-22T04:47:08;0.80;;;0.30;;
33579;SDS011;19909;43.644;-79.438;2024-03-22T04:49:34;0.47;;;0.30;;
33579;SDS011;19909;43.644;-79.438;2024-03-22T04:52:02;0.75;;;0.35;;
33579;SDS011;19909;43.644;-79.438;2024-03-22T04:54:29;1.40;;;0.40;;
33579;SDS011;19909;43.644;-79.438;2024-03-22T04:56:55;1.27;;;0.40;;
33579;SDS011;19909;43.644;-79.438;2024-03-22T04:59:22;0.40;;;0.30;;
33579;SDS011;19909;43.644;-79.438;2024-03-22T05:01:48;0.35;;;0.30;;
33579;SDS011;19909;43.644;-79.438;2024-03-22T05:04:14;1.17;;;0.50;;
33579;SDS011;19909;43.644;-79.438;2024-03-22T05:06:41;1.23;;;0.38;;
33579;SDS011;19909;43.644;-79.438;2024-03-22T05:09:10;0.60;;;0.40;;
33579;SDS011;19909;43.644;-79.438;2024-03-22T05:11:36;0.73;;;0.30;;
33579;SDS011;19909;43.644;-79.438;2024-03-22T05:14:04;0.43;;;0.30;;
33579;SDS011;19909;43.644;-79.438;2024-03-22T05:16:31;0.30;;;0.30;;
33579;SDS011;19909;43.644;-79.438;2024-03-22T05:18:57;0.38;;;0.35;;
33579;SDS011;19909;43.644;-79.438;2024-03-22T05:21:26;0.57;;;0.30;;
33579;SDS011;19909;43.644;-79.438;2024-03-22T05:23:53;0.60;;;0.35;;
33579;SDS011;19909;43.644;-79.438;2024-03-22T05:26:20;0.90;;;0.40;;
33579;SDS011;19909;43.644;-79.438;2024-03-22T05:28:46;0.45;;;0.22;;
33579;SDS011;19909;43.644;-79.438;2024-03-22T05:31:12;0.30;;;0.30;;
33579;SDS011;19909;43.644;-79.438;2024-03-22T05:33:39;1.00;;;0.30;;
33579;SDS011;19909;43.644;-79.438;2024-03-22T05:36:06;0.20;;;0.17;;
33579;SDS011;19909;43.644;-79.438;2024-03-22T05:38:32;0.20;;;0.20;;
33579;SDS011;19909;43.644;-79.438;2024-03-22T05:41:03;1.67;;;0.20;;
33579;SDS011;19909;43.644;-79.438;2024-03-22T05:43:30;0.60;;;0.38;;
33579;SDS011;19909;43.644;-79.438;2024-03-22T05:45:56;0.43;;;0.20;;
33579;SDS011;19909;43.644;-79.438;2024-03-22T05:48:22;0.60;;;0.30;;
33579;SDS011;19909;43.644;-79.438;2024-03-22T05:50:49;0.25;;;0.15;;
33579;SDS011;19909;43.644;-79.438;2024-03-22T05:53:15;0.90;;;0.28;;
33579;SDS011;19909;43.644;-79.438;2024-03-22T05:55:42;1.35;;;0.30;;
33579;SDS011;19909;43.644;-79.438;2024-03-22T05:58:08;0.45;;;0.20;;
33579;SDS011;19909;43.644;-79.438;2024-03-22T06:00:34;0.95;;;0.30;;
33579;SDS011;19909;43.644;-79.438;2024-03-22T06:03:01;0.52;;;0.30;;
33579;SDS011;19909;43.644;-79.438;2024-03-22T06:05:27;0.35;;;0.15;;
33579;SDS011;19909;43.644;-79.438;2024-03-22T06:07:53;0.40;;;0.20;;
33579;SDS011;19909;43.644;-79.438;2024-03-22T06:10:20;0.20;;;0.10;;
33579;SDS011;19909;43.644;-79.438;2024-03-22T06:12:47;0.40;;;0.20;;
33579;SDS011;19909;43.644;-79.438;2024-03-22T06:15:13;0.30;;;0.13;;
33579;SDS011;19909;43.644;-79.438;2024-03-22T06:17:40;1.33;;;0.30;;
33579;SDS011;19909;43.644;-79.438;2024-03-22T06:20:08;0.50;;;0.28;;
33579;SDS011;19909;43.644;-79.438;2024-03-22T06:22:35;0.90;;;0.20;;
33579;SDS011;19909;43.644;-79.438;2024-03-22T06:25:02;0.20;;;0.15;;
33579;SDS011;19909;43.644;-79.438;2024-03-22T06:27:29;0.30;;;0.20;;
33579;SDS011;19909;43.644;-79.438;2024-03-22T06:29:56;0.73;;;0.20;;
33579;SDS011;19909;43.644;-79.438;2024-03-22T06:32:22;2.05;;;0.40;;
33579;SDS011;19909;43.644;-79.438;2024-03-22T06:34:48;0.90;;;0.40;;
33579;SDS011;19909;43.644;-79.438;2024-03-22T06:37:15;0.75;;;0.30;;
33579;SDS011;19909;43.644;-79.438;2024-03-22T06:39:41;0.65;;;0.35;;
33579;SDS011;19909;43.644;-79.438;2024-03-22T06:42:07;0.63;;;0.30;;
33579;SDS011;19909;43.644;-79.438;2024-03-22T06:44:33;1.15;;;0.40;;
33579;SDS011;19909;43.644;-79.438;2024-03-22T06:47:01;1.17;;;0.25;;
33579;SDS011;19909;43.644;-79.438;2024-03-22T06:49:28;0.60;;;0.20;;
33579;SDS011;19909;43.644;-79.438;2024-03-22T06:51:54;0.75;;;0.35;;
33579;SDS011;19909;43.644;-79.438;2024-03-22T06:54:20;0.35;;;0.20;;
33579;SDS011;19909;43.644;-79.438;2024-03-22T06:56:47;0.40;;;0.17;;
33579;SDS011;19909;43.644;-79.438;2024-03-22T06:59:13;0.77;;;0.20;;
33579;SDS011;19909;43.644;-79.438;2024-03-22T07:01:39;1.35;;;0.13;;
33579;SDS011;19909;43.644;-79.438;2024-03-22T07:04:05;0.60;;;0.20;;
33579;SDS011;19909;43.644;-79.438;2024-03-22T07:06:31;0.38;;;0.20;;
33579;SDS011;19909;43.644;-79.438;2024-03-22T07:08:58;0.30;;;0.20;;
33579;SDS011;19909;43.644;-79.438;2024-03-22T07:11:24;1.52;;;0.20;;
33579;SDS011;19909;43.644;-79.438;2024-03-22T07:13:50;0.70;;;0.30;;
33579;SDS011;19909;43.644;-79.438;2024-03-22T07:16:18;0.73;;;0.30;;
33579;SDS011;19909;43.644;-79.438;2024-03-22T07:18:44;0.93;;;0.40;;
33579;SDS011;19909;43.644;-79.438;2024-03-22T07:21:11;0.30;;;0.20;;
33579;SDS011;19909;43.644;-79.438;2024-03-22T07:23:37;0.65;;;0.25;;
33579;SDS011;19909;43.644;-79.438;2024-03-22T07:26:03;0.98;;;0.45;;
33579;SDS011;19909;43.644;-79.438;2024-03-22T07:28:31;0.60;;;0.32;;
33579;SDS011;19909;43.644;-79.438;2024-03-22T07:30:57;0.85;;;0.30;;
33579;SDS011;19909;43.644;-79.438;2024-03-22T07:33:23;1.00;;;0.17;;
33579;SDS011;19909;43.644;-79.438;2024-03-22T07:35:50;0.40;;;0.10;;
33579;SDS011;19909;43.644;-79.438;2024-03-22T07:38:19;1.88;;;0.40;;
33579;SDS011;19909;43.644;-79.438;2024-03-22T07:40:45;0.20;;;0.17;;
33579;SDS011;19909;43.644;-79.438;2024-03-22T07:43:11;1.60;;;0.40;;
33579;SDS011;19909;43.644;-79.438;2024-03-22T07:45:39;0.77;;;0.20;;
33579;SDS011;19909;43.644;-79.438;2024-03-22T07:48:06;0.60;;;0.20;;
33579;SDS011;19909;43.644;-79.438;2024-03-22T07:50:32;3.10;;;0.40;;
33579;SDS011;19909;43.644;-79.438;2024-03-22T07:52:58;0.60;;;0.30;;
33579;SDS011;19909;43.644;-79.438;2024-03-22T07:55:25;1.05;;;0.30;;
33579;SDS011;19909;43.644;-79.438;2024-03-22T07:57:51;1.38;;;0.68;;
33579;SDS011;19909;43.644;-79.438;2024-03-22T08:00:19;0.95;;;0.47;;
33579;SDS011;19909;43.644;-79.438;2024-03-22T08:02:45;0.55;;;0.30;;
33579;SDS011;19909;43.644;-79.438;2024-03-22T08:05:11;1.13;;;0.50;;
33579;SDS011;19909;43.644;-79.438;2024-03-22T08:07:37;1.10;;;0.47;;
33579;SDS011;19909;43.644;-79.438;2024-03-22T08:10:04;1.40;;;0.30;;
33579;SDS011;19909;43.644;-79.438;2024-03-22T08:12:30;1.92;;;0.50;;
33579;SDS011;19909;43.644;-79.438;2024-03-22T08:14:56;1.75;;;0.20;;
33579;SDS011;19909;43.644;-79.438;2024-03-22T08:17:22;0.73;;;0.30;;
33579;SDS011;19909;43.644;-79.438;2024-03-22T08:19:49;0.75;;;0.30;;
33579;SDS011;19909;43.644;-79.438;2024-03-22T08:22:15;0.77;;;0.38;;
33579;SDS011;19909;43.644;-79.438;2024-03-22T08:24:41;0.47;;;0.20;;
33579;SDS011;19909;43.644;-79.438;2024-03-22T08:27:07;0.73;;;0.40;;
33579;SDS011;19909;43.644;-79.438;2024-03-22T08:29:33;0.47;;;0.20;;
33579;SDS011;19909;43.644;-79.438;2024-03-22T08:32:00;0.98;;;0.38;;
33579;SDS011;19909;43.644;-79.438;2024-03-22T08:34:30;1.08;;;0.40;;
33579;SDS011;19909;43.644;-79.438;2024-03-22T08:37:00;2.05;;;0.57;;
33579;SDS011;19909;43.644;-79.438;2024-03-22T08:39:30;0.75;;;0.40;;
33579;SDS011;19909;43.644;-79.438;2024-03-22T08:41:57;0.90;;;0.45;;
33579;SDS011;19909;43.644;-79.438;2024-03-22T08:44:23;0.52;;;0.40;;
33579;SDS011;19909;43.644;-79.438;2024-03-22T08:46:49;0.63;;;0.35;;
33579;SDS011;19909;43.644;-79.438;2024-03-22T08:49:17;1.38;;;0.43;;
33579;SDS011;19909;43.644;-79.438;2024-03-22T08:51:44;0.95;;;0.40;;
33579;SDS011;19909;43.644;-79.438;2024-03-22T08:54:11;1.17;;;0.63;;
33579;SDS011;19909;43.644;-79.438;2024-03-22T08:56:37;0.82;;;0.35;;
33579;SDS011;19909;43.644;-79.438;2024-03-22T08:59:05;0.40;;;0.32;;
33579;SDS011;19909;43.644;-79.438;2024-03-22T09:01:31;0.88;;;0.40;;
33579;SDS011;19909;43.644;-79.438;2024-03-22T09:03:57;0.47;;;0.20;;
33579;SDS011;19909;43.644;-79.438;2024-03-22T09:06:25;0.85;;;0.38;;
33579;SDS011;19909;43.644;-79.438;2024-03-22T09:08:52;0.63;;;0.30;;
33579;SDS011;19909;43.644;-79.438;2024-03-22T09:11:23;2.05;;;0.40;;
33579;SDS011;19909;43.644;-79.438;2024-03-22T09:13:53;0.75;;;0.40;;
33579;SDS011;19909;43.644;-79.438;2024-03-22T09:16:20;1.25;;;0.50;;
33579;SDS011;19909;43.644;-79.438;2024-03-22T09:18:46;1.42;;;0.57;;
33579;SDS011;19909;43.644;-79.438;2024-03-22T09:21:13;1.25;;;0.52;;
33579;SDS011;19909;43.644;-79.438;2024-03-22T09:23:39;0.93;;;0.55;;
33579;SDS011;19909;43.644;-79.438;2024-03-22T09:26:05;0.70;;;0.50;;
33579;SDS011;19909;43.644;-79.438;2024-03-22T09:28:33;0.77;;;0.40;;
33579;SDS011;19909;43.644;-79.438;2024-03-22T09:31:06;1.42;;;0.52;;
33579;SDS011;19909;43.644;-79.438;2024-03-22T09:33:33;1.02;;;0.52;;
33579;SDS011;19909;43.644;-79.438;2024-03-22T09:35:59;0.75;;;0.20;;
33579;SDS011;19909;43.644;-79.438;2024-03-22T09:38:26;0.30;;;0.20;;
33579;SDS011;19909;43.644;-79.438;2024-03-22T09:40:53;0.70;;;0.30;;
33579;SDS011;19909;43.644;-79.438;2024-03-22T09:43:21;2.13;;;0.30;;
33579;SDS011;19909;43.644;-79.438;2024-03-22T09:45:49;0.75;;;0.30;;
33579;SDS011;19909;43.644;-79.438;2024-03-22T09:48:17;0.70;;;0.20;;
33579;SDS011;19909;43.644;-79.438;2024-03-22T09:50:47;1.52;;;0.50;;
33579;SDS011;19909;43.644;-79.438;2024-03-22T09:53:19;0.65;;;0.40;;
33579;SDS011;19909;43.644;-79.438;2024-03-22T09:55:48;0.90;;;0.47;;
33579;SDS011;19909;43.644;-79.438;2024-03-22T09:58:17;2.53;;;0.60;;
33579;SDS011;19909;43.644;-79.438;2024-03-22T10:00:43;0.75;;;0.40;;
33579;SDS011;19909;43.644;-79.438;2024-03-22T10:03:09;1.52;;;0.50;;
33579;SDS011;19909;43.644;-79.438;2024-03-22T10:05:36;2.10;;;0.57;;
33579;SDS011;19909;43.644;-79.438;2024-03-22T10:08:03;3.03;;;0.50;;
33579;SDS011;19909;43.644;-79.438;2024-03-22T10:10:31;1.27;;;0.60;;
33579;SDS011;19909;43.644;-79.438;2024-03-22T10:13:01;0.82;;;0.43;;
33579;SDS011;19909;43.644;-79.438;2024-03-22T10:15:28;0.90;;;0.55;;
33579;SDS011;19909;43.644;-79.438;2024-03-22T10:17:59;0.70;;;0.50;;
33579;SDS011;19909;43.644;-79.438;2024-03-22T10:20:25;1.73;;;0.60;;
33579;SDS011;19909;43.644;-79.438;2024-03-22T10:22:56;2.05;;;0.50;;
33579;SDS011;19909;43.644;-79.438;2024-03-22T10:25:23;1.30;;;0.40;;
33579;SDS011;19909;43.644;-79.438;2024-03-22T10:27:51;1.48;;;0.50;;
33579;SDS011;19909;43.644;-79.438;2024-03-22T10:30:18;1.75;;;0.65;;
33579;SDS011;19909;43.644;-79.438;2024-03-22T10:32:45;2.08;;;0.47;;
33579;SDS011;19909;43.644;-79.438;2024-03-22T10:35:13;2.00;;;0.65;;
33579;SDS011;19909;43.644;-79.438;2024-03-22T10:37:40;0.77;;;0.50;;
33579;SDS011;19909;43.644;-79.438;2024-03-22T10:40:07;1.00;;;0.43;;
33579;SDS011;19909;43.644;-79.438;2024-03-22T10:42:37;2.78;;;0.70;;
33579;SDS011;19909;43.644;-79.438;2024-03-22T10:45:08;1.60;;;0.63;;
33579;SDS011;19909;43.644;-79.438;2024-03-22T10:47:36;0.82;;;0.50;;
33579;SDS011;19909;43.644;-79.438;2024-03-22T10:50:10;1.23;;;0.55;;
33579;SDS011;19909;43.644;-79.438;2024-03-22T10:52:42;1.33;;;0.57;;
33579;SDS011;19909;43.644;-79.438;2024-03-22T10:55:12;1.60;;;0.52;;
33579;SDS011;19909;43.644;-79.438;2024-03-22T10:57:54;0.75;;;0.20;;
33579;SDS011;19909;43.644;-79.438;2024-03-22T11:00:30;0.93;;;0.20;;
33579;SDS011;19909;43.644;-79.438;2024-03-22T11:02:59;0.35;;;0.30;;
33579;SDS011;19909;43.644;-79.438;2024-03-22T11:05:27;1.05;;;0.50;;
33579;SDS011;19909;43.644;-79.438;2024-03-22T11:08:03;0.40;;;0.20;;
33579;SDS011;19909;43.644;-79.438;2024-03-22T11:10:33;1.15;;;0.57;;
33579;SDS011;19909;43.644;-79.438;2024-03-22T11:13:01;0.95;;;0.28;;
33579;SDS011;19909;43.644;-79.438;2024-03-22T11:15:29;1.20;;;0.30;;
33579;SDS011;19909;43.644;-79.438;2024-03-22T11:17:56;1.52;;;0.57;;
33579;SDS011;19909;43.644;-79.438;2024-03-22T11:20:23;1.08;;;0.52;;
33579;SDS011;19909;43.644;-79.438;2024-03-22T11:22:51;1.10;;;0.40;;
33579;SDS011;19909;43.644;-79.438;2024-03-22T11:25:18;0.95;;;0.40;;
33579;SDS011;19909;43.644;-79.438;2024-03-22T11:27:48;1.50;;;0.40;;
33579;SDS011;19909;43.644;-79.438;2024-03-22T11:30:15;1.20;;;0.70;;
33579;SDS011;19909;43.644;-79.438;2024-03-22T11:32:43;1.10;;;0.50;;
33579;SDS011;19909;43.644;-79.438;2024-03-22T11:35:11;0.90;;;0.50;;
33579;SDS011;19909;43.644;-79.438;2024-03-22T11:37:39;1.05;;;0.45;;
33579;SDS011;19909;43.644;-79.438;2024-03-22T11:40:09;1.23;;;0.40;;
33579;SDS011;19909;43.644;-79.438;2024-03-22T11:42:41;1.55;;;0.30;;
33579;SDS011;19909;43.644;-79.438;2024-03-22T11:45:11;0.95;;;0.30;;
33579;SDS011;19909;43.644;-79.438;2024-03-22T11:47:40;0.93;;;0.30;;
33579;SDS011;19909;43.644;-79.438;2024-03-22T11:50:08;1.27;;;0.40;;
33579;SDS011;19909;43.644;-79.438;2024-03-22T11:52:42;3.03;;;0.30;;
33579;SDS011;19909;43.644;-79.438;2024-03-22T11:55:12;0.93;;;0.40;;
33579;SDS011;19909;43.644;-79.438;2024-03-22T11:57:39;1.98;;;0.38;;
33579;SDS011;19909;43.644;-79.438;2024-03-22T12:00:13;1.02;;;0.50;;
33579;SDS011;19909;43.644;-79.438;2024-03-22T12:02:40;1.33;;;0.60;;
33579;SDS011;19909;43.644;-79.438;2024-03-22T12:05:07;2.47;;;0.40;;
33579;SDS011;19909;43.644;-79.438;2024-03-22T12:07:35;0.93;;;0.50;;
33579;SDS011;19909;43.644;-79.438;2024-03-22T12:10:02;1.50;;;0.50;;
33579;SDS011;19909;43.644;-79.438;2024-03-22T12:12:29;1.73;;;0.55;;
33579;SDS011;19909;43.644;-79.438;2024-03-22T12:14:55;2.20;;;0.50;;
33579;SDS011;19909;43.644;-79.438;2024-03-22T12:17:22;1.00;;;0.50;;
33579;SDS011;19909;43.644;-79.438;2024-03-22T12:19:48;0.75;;;0.40;;
33579;SDS011;19909;43.644;-79.438;2024-03-22T12:22:15;1.25;;;0.43;;
33579;SDS011;19909;43.644;-79.438;2024-03-22T12:24:41;0.60;;;0.30;;
33579;SDS011;19909;43.644;-79.438;2024-03-22T12:27:07;1.20;;;0.20;;
33579;SDS011;19909;43.644;-79.438;2024-03-22T12:29:34;1.02;;;0.20;;
33579;SDS011;19909;43.644;-79.438;2024-03-22T12:32:01;0.22;;;0.20;;
33579;SDS011;19909;43.644;-79.438;2024-03-22T12:34:32;3.20;;;0.52;;
33579;SDS011;19909;43.644;-79.438;2024-03-22T12:36:59;0.73;;;0.38;;
33579;SDS011;19909;43.644;-79.438;2024-03-22T12:39:25;1.42;;;0.50;;
33579;SDS011;19909;43.644;-79.438;2024-03-22T12:41:51;2.05;;;0.38;;
33579;SDS011;19909;43.644;-79.438;2024-03-22T12:44:18;0.75;;;0.28;;
33579;SDS011;19909;43.644;-79.438;2024-03-22T12:46:45;1.88;;;0.30;;
33579;SDS011;19909;43.644;-79.438;2024-03-22T12:49:14;0.90;;;0.50;;
33579;SDS011;19909;43.644;-79.438;2024-03-22T12:51:40;0.93;;;0.40;;
33579;SDS011;19909;43.644;-79.438;2024-03-22T12:54:07;1.42;;;0.50;;
33579;SDS011;19909;43.644;-79.438;2024-03-22T12:56:33;1.75;;;0.38;;
33579;SDS011;19909;43.644;-79.438;2024-03-22T12:59:00;0.80;;;0.40;;
33579;SDS011;19909;43.644;-79.438;2024-03-22T13:01:26;2.47;;;0.40;;
33579;SDS011;19909;43.644;-79.438;2024-03-22T13:03:53;1.05;;;0.43;;
33579;SDS011;19909;43.644;-79.438;2024-03-22T13:06:19;1.48;;;0.20;;
33579;SDS011;19909;43.644;-79.438;2024-03-22T13:08:46;0.57;;;0.20;;
33579;SDS011;19909;43.644;-79.438;2024-03-22T13:11:12;0.73;;;0.13;;
33579;SDS011;19909;43.644;-79.438;2024-03-22T13:13:39;0.17;;;0.13;;
33579;SDS011;19909;43.644;-79.438;2024-03-22T13:16:05;0.63;;;0.28;;
33579;SDS011;19909;43.644;-79.438;2024-03-22T13:18:34;0.17;;;0.10;;
33579;SDS011;19909;43.644;-79.438;2024-03-22T13:21:00;0.20;;;0.05;;
33579;SDS011;19909;43.644;-79.438;2024-03-22T13:23:28;0.40;;;0.20;;
33579;SDS011;19909;43.644;-79.438;2024-03-22T13:25:55;0.73;;;0.32;;
33579;SDS011;19909;43.644;-79.438;2024-03-22T13:28:24;0.22;;;0.20;;
33579;SDS011;19909;43.644;-79.438;2024-03-22T13:30:59;0.20;;;0.10;;
33579;SDS011;19909;43.644;-79.438;2024-03-22T13:33:31;0.65;;;0.45;;
33579;SDS011;19909;43.644;-79.438;2024-03-22T13:35:58;0.40;;;0.15;;
33579;SDS011;19909;43.644;-79.438;2024-03-22T13:38:25;0.20;;;0.20;;
33579;SDS011;19909;43.644;-79.438;2024-03-22T13:40:57;0.50;;;0.30;;
33579;SDS011;19909;43.644;-79.438;2024-03-22T13:43:26;0.22;;;0.20;;
33579;SDS011;19909;43.644;-79.438;2024-03-22T13:45:52;0.52;;;0.25;;
33579;SDS011;19909;43.644;-79.438;2024-03-22T13:48:20;0.20;;;0.10;;
33579;SDS011;19909;43.644;-79.438;2024-03-22T13:50:54;0.20;;;0.20;;
33579;SDS011;19909;43.644;-79.438;2024-03-22T13:53:21;0.10;;;0.10;;
33579;SDS011;19909;43.644;-79.438;2024-03-22T13:55:51;0.10;;;0.10;;
33579;SDS011;19909;43.644;-79.438;2024-03-22T13:58:20;1.55;;;0.10;;
33579;SDS011;19909;43.644;-79.438;2024-03-22T14:00:47;0.10;;;0.10;;
33579;SDS011;19909;43.644;-79.438;2024-03-22T14:03:13;1.25;;;0.30;;
33579;SDS011;19909;43.644;-79.438;2024-03-22T14:05:39;0.45;;;0.15;;
33579;SDS011;19909;43.644;-79.438;2024-03-22T14:08:07;0.88;;;0.25;;
33579;SDS011;19909;43.644;-79.438;2024-03-22T14:10:34;0.22;;;0.13;;
33579;SDS011;19909;43.644;-79.438;2024-03-22T14:13:01;0.20;;;0.20;;
33579;SDS011;19909;43.644;-79.438;2024-03-22T14:15:27;1.35;;;0.20;;
33579;SDS011;19909;43.644;-79.438;2024-03-22T14:17:57;0.10;;;0.10;;
33579;SDS011;19909;43.644;-79.438;2024-03-22T14:20:24;0.35;;;0.15;;
33579;SDS011;19909;43.644;-79.438;2024-03-22T14:22:51;0.28;;;0.20;;
33579;SDS011;19909;43.644;-79.438;2024-03-22T14:25:17;0.30;;;0.20;;